BIENTÔT MET'MAP
version 2.0 !

Prévue avant fin octobre,
la nouvelle version sera
plus belle, plus complète
et hébergée sur un serveur
3 fois plus puissant...
et toujours gratuite !


Pas compatible ?
Essayez la version Mobile !

SE CONNECTER : | S'inscrire | Disclaimer | Découvrir Orbifly |
Code OACI :
Lgende : VFR VFR Marginal IFR IFR Intensif IFR Trs Intensif
Visi :
Plafond :
>= 8 km
>= 3000ft
5 8 km
1000 3000 ft
1500m 5 km
500 1000 ft
800 1500m
200 500 ft
< 800m
< 200 ft

METAR - LDPL Pula - 02 Jun 2020 07:43 UTC
Data Sources :     NOAA   


- Altitude de l'aérodrome : 274 ft
- Code IATA : PUY
- Pas de NOTAMs connus.


LDPL - Pula

Dernier METAR connu : 2015/08/11 08:00 LDPL 110800Z 12007KT 070V170 CAVOK 30/17 Q1012 NOSIG
TAF TAF LDPL
Valide du 02 à 06h jusqu'au 03 à 06h UTC


020525Z 0206/0306 03006KT 9999 FEW040 TX24/0212Z TN14/0304Z
BECMG 0208/0210 27009KT
PROB30
TEMPO 0211/0216 -TSRA FEW040CB SCT050
BECMG 0216/0218 05005KT

Source NOAA


MET'MAP, la Météo Aéronautique d'un coup d'oeil ! - Copyright ORBIFLY Décembre 2007

Développement & Programmation : Alexandra Zaïnal
Co-Développement : Marc-Olivier Méhu
Soutien technique & logistique : Manuel Goepfert
Conception & Financement : Baudouin d'Aumeries